Time;durP1;ratioP1;P1;durP2;ratioP2;P2;SDS_P1;SDS_P2;PMS_P1;PMS_P2;Temp;Humidity;BMP_temperature;BMP_pressure;BME280_temperature;BME280_humidity;BME280_pressure;Samples;Min_cycle;Max_cycle;Signal;HPM_P1;HPM_P2
2022/06/04 00:00:15;;;;;;;;;14.67;14.67;;;;;21.43;64.69;101173.59;5020323;28;46174;-88
2022/06/04 00:02:42;;;;;;;;;14.00;13.33;;;;;21.32;64.36;101153.75;5019317;28;45526;-88
2022/06/04 00:05:09;;;;;;;;;15.33;13.67;;;;;21.37;64.63;101170.50;5020269;28;45276;-88
2022/06/04 00:07:35;;;;;;;;;13.67;12.00;;;;;21.25;64.53;101145.25;5002277;28;45643;-88
2022/06/04 00:15:29;;;;;;;;;13.00;12.33;;;;;21.35;64.85;101162.47;5014708;28;45390;-89
2022/06/04 00:17:55;;;;;;;;;13.33;12.33;;;;;21.19;64.34;101138.50;5020082;28;45345;-89
2022/06/04 00:20:21;;;;;;;;;14.00;11.67;;;;;21.36;64.76;101169.63;5019828;28;46134;-88
2022/06/04 00:22:47;;;;;;;;;14.67;14.00;;;;;21.18;64.95;101136.75;5019372;28;45472;-88
2022/06/04 00:25:15;;;;;;;;;9.00;8.67;;;;;21.31;64.44;101160.16;5019806;28;45389;-88
2022/06/04 00:27:40;;;;;;;;;15.33;12.67;;;;;21.31;64.81;101158.31;5019119;28;45371;-89
2022/06/04 00:30:07;;;;;;;;;14.33;12.33;;;;;21.26;64.57;101160.53;5020308;28;46316;-88
2022/06/04 00:32:37;;;;;;;;;17.00;14.33;;;;;21.16;64.33;101148.72;5019072;28;45382;-87
2022/06/04 00:35:06;;;;;;;;;13.33;13.33;;;;;21.22;64.73;101164.50;5019734;28;45431;-88
2022/06/04 00:37:35;;;;;;;;;15.00;15.00;;;;;21.29;64.46;101181.97;5020140;28;45854;-87
2022/06/04 00:40:02;;;;;;;;;14.00;13.00;;;;;21.20;64.63;101166.47;5004618;28;45521;-88
2022/06/04 00:42:28;;;;;;;;;12.00;12.00;;;;;21.27;64.70;101173.94;5015864;28;45499;-88
2022/06/04 00:45:15;;;;;;;;;16.00;13.33;;;;;21.23;64.76;101171.63;5019931;28;45603;-89
2022/06/04 00:47:41;;;;;;;;;14.33;13.67;;;;;20.96;64.53;101107.84;5020750;28;45466;-88
2022/06/04 00:50:08;;;;;;;;;16.00;15.00;;;;;21.16;64.15;101137.88;5019504;28;46108;-88
2022/06/04 00:52:34;;;;;;;;;18.00;15.00;;;;;21.20;64.71;101131.22;5019377;28;45435;-88
2022/06/04 00:55:02;;;;;;;;;15.00;14.00;;;;;21.09;64.21;101115.81;5003735;28;45348;-89
2022/06/04 00:57:43;;;;;;;;;15.00;14.67;;;;;21.19;64.81;101129.47;5014430;28;45381;-87
2022/06/04 01:00:13;;;;;;;;;12.33;12.33;;;;;21.12;64.14;101110.16;5017751;28;47503;-87
2022/06/04 01:02:44;;;;;;;;;13.33;13.33;;;;;21.18;64.27;101120.50;5017844;28;45500;-87
2022/06/04 01:05:43;;;;;;;;;13.00;13.00;;;;;21.14;64.88;101134.41;5019295;28;45658;-87
2022/06/04 01:08:33;;;;;;;;;16.00;14.67;;;;;21.11;64.93;101135.53;5019456;28;45411;-88
2022/06/04 01:11:14;;;;;;;;;18.67;15.00;;;;;21.00;64.82;101113.88;5018723;28;47112;-87
2022/06/04 01:13:54;;;;;;;;;14.67;13.67;;;;;21.12;64.70;101131.84;5018236;28;45424;-88
2022/06/04 01:16:37;;;;;;;;;15.67;14.00;;;;;21.11;64.97;101121.13;5019287;28;45475;-88
2022/06/04 01:19:25;;;;;;;;;13.33;12.67;;;;;21.10;64.25;101122.97;5003966;28;45779;-87
2022/06/04 01:22:02;;;;;;;;;16.33;15.00;;;;;21.09;64.95;101129.38;5018448;28;46275;-88
2022/06/04 01:24:36;;;;;;;;;14.00;12.33;;;;;21.07;64.32;101117.78;5013453;28;45368;-88
2022/06/04 01:27:25;;;;;;;;;16.33;14.67;;;;;21.05;64.46;101131.50;5018981;28;45837;-87
2022/06/04 01:29:56;;;;;;;;;13.33;11.67;;;;;21.09;64.83;101115.81;5018613;28;45917;-88
2022/06/04 01:32:30;;;;;;;;;15.33;13.33;;;;;21.08;64.65;101108.69;5017013;28;46489;-88
2022/06/04 01:35:09;;;;;;;;;17.33;14.33;;;;;21.07;64.34;101098.81;5018818;28;45507;-87
2022/06/04 01:37:59;;;;;;;;;16.67;15.00;;;;;20.98;64.72;101086.91;5018350;28;45513;-88
2022/06/04 01:43:25;;;;;;;;;15.67;14.67;;;;;21.00;64.30;101092.19;5005128;28;45519;-88
2022/06/04 01:45:55;;;;;;;;;17.33;16.33;;;;;21.02;64.79;101091.06;5018032;28;45405;-88
2022/06/04 01:48:23;;;;;;;;;18.33;16.67;;;;;20.96;64.76;101085.31;5017749;28;45368;-88
2022/06/04 01:50:56;;;;;;;;;14.67;14.67;;;;;20.74;65.18;101054.53;5020894;28;45527;-88
2022/06/04 01:53:29;;;;;;;;;17.00;15.33;;;;;20.90;65.57;101083.09;5018065;28;45424;-88
2022/06/04 01:56:00;;;;;;;;;14.33;13.00;;;;;20.86;65.60;101083.34;5018273;28;45503;-87
2022/06/04 01:58:36;;;;;;;;;17.00;16.00;;;;;20.86;65.39;101091.47;5018009;28;45376;-88
2022/06/04 02:01:09;;;;;;;;;17.00;16.00;;;;;20.80;65.44;101081.13;5003011;28;45409;-87
2022/06/04 02:03:46;;;;;;;;;12.00;11.67;;;;;20.87;65.58;101101.31;5013462;28;46109;-88
2022/06/04 02:06:17;;;;;;;;;15.33;13.33;;;;;20.71;65.27;101070.19;5017242;28;45470;-87
2022/06/04 02:08:55;;;;;;;;;14.33;13.33;;;;;20.94;64.53;101098.13;5017928;28;45495;-88
2022/06/04 02:11:22;;;;;;;;;13.00;13.00;;;;;20.94;64.84;101106.25;5017792;28;45392;-88
2022/06/04 02:13:51;;;;;;;;;14.67;13.67;;;;;20.83;64.94;101088.16;5033062;28;46978;-87
2022/06/04 02:16:28;;;;;;;;;15.33;13.67;;;;;20.85;64.98;101097.03;5017982;28;45501;-87
2022/06/04 02:18:56;;;;;;;;;13.00;12.00;;;;;20.94;65.04;101111.69;5018036;28;45408;-88
2022/06/04 02:21:23;;;;;;;;;15.33;14.67;;;;;20.96;64.38;101115.13;5017196;28;45396;-88
2022/06/04 02:23:48;;;;;;;;;15.33;14.33;;;;;20.84;64.38;101096.16;5017725;28;45513;-87
2022/06/04 02:26:16;;;;;;;;;13.00;12.33;;;;;20.96;64.34;101121.41;5017485;28;45325;-88
2022/06/04 02:28:42;;;;;;;;;13.67;12.33;;;;;20.82;64.91;101084.59;5017987;28;45316;-88
2022/06/04 02:31:16;;;;;;;;;15.67;13.67;;;;;20.97;64.30;101096.00;5018301;28;45325;-88
2022/06/04 02:33:57;;;;;;;;;12.00;11.33;;;;;20.98;64.75;101086.91;5017084;28;45603;-87
2022/06/04 02:36:37;;;;;;;;;15.00;13.67;;;;;20.87;64.11;101060.69;5016279;28;45410;-88
2022/06/04 02:39:18;;;;;;;;;12.67;11.67;;;;;20.96;64.69;101080.75;5017787;28;45455;-87
2022/06/04 02:41:58;;;;;;;;;13.33;13.00;;;;;20.96;64.32;101093.44;5017555;28;45480;-87
2022/06/04 02:44:28;;;;;;;;;12.67;11.67;;;;;20.96;64.32;101088.03;5017261;28;46754;-88
2022/06/04 02:47:10;;;;;;;;;12.33;12.33;;;;;20.98;64.36;101083.34;5017601;28;45489;-88
2022/06/04 02:49:46;;;;;;;;;14.00;13.00;;;;;20.89;64.58;101073.25;5016512;28;45468;-88
2022/06/04 02:52:16;;;;;;;;;13.00;11.33;;;;;20.69;64.97;101040.50;5018218;28;45523;-88
2022/06/04 02:54:56;;;;;;;;;13.00;12.00;;;;;20.86;64.91;101067.09;5016331;28;45978;-88
2022/06/04 02:57:24;;;;;;;;;14.00;12.67;;;;;20.74;65.63;101045.56;5015627;28;45668;-89
2022/06/04 02:59:50;;;;;;;;;17.33;14.33;;;;;20.78;65.96;101060.56;5017504;28;45863;-88
2022/06/04 03:02:19;;;;;;;;;15.00;15.00;;;;;20.61;65.54;101029.47;5017943;28;45424;-88
2022/06/04 03:04:49;;;;;;;;;14.00;12.67;;;;;20.74;65.93;101038.28;5018863;28;46223;-87
2022/06/04 03:07:16;;;;;;;;;15.67;13.67;;;;;20.55;66.88;101022.63;5018738;28;45584;-88
2022/06/04 03:09:44;;;;;;;;;16.33;15.00;;;;;20.62;66.55;101031.16;5017869;28;45349;-88
2022/06/04 03:12:11;;;;;;;;;16.67;14.33;;;;;20.67;66.31;101034.34;5017888;28;45485;-87
2022/06/04 03:14:37;;;;;;;;;12.67;12.67;;;;;20.61;66.25;101029.47;5018690;28;46040;-88
2022/06/04 03:17:05;;;;;;;;;14.67;14.67;;;;;20.74;66.19;101049.13;5018070;28;45947;-88
2022/06/04 03:19:31;;;;;;;;;16.00;14.00;;;;;20.79;65.75;101037.91;5017406;28;45376;-88
2022/06/04 03:21:56;;;;;;;;;13.33;13.33;;;;;20.74;65.34;101022.03;5017581;28;45321;-88
2022/06/04 03:24:21;;;;;;;;;14.00;13.67;;;;;20.87;65.63;101041.72;5016621;28;46041;-88
2022/06/04 03:26:47;;;;;;;;;13.00;11.67;;;;;20.73;65.59;101020.31;5020571;28;45473;-88
2022/06/04 03:29:12;;;;;;;;;15.67;13.67;;;;;20.91;65.44;101055.00;5021928;28;45352;-87
2022/06/04 03:31:37;;;;;;;;;12.67;12.67;;;;;20.82;64.88;101032.25;5036126;28;45451;-87
2022/06/04 03:34:04;;;;;;;;;15.67;15.67;;;;;20.79;65.08;101013.53;5020554;28;46120;-88
2022/06/04 03:36:30;;;;;;;;;15.33;13.67;;;;;20.85;65.88;101024.72;5019682;28;45388;-88
2022/06/04 03:39:00;;;;;;;;;15.67;13.67;;;;;20.83;65.18;101026.69;5020213;28;45665;-88
2022/06/04 03:41:26;;;;;;;;;19.00;14.67;;;;;20.90;65.58;101045.16;5020661;28;45332;-88
2022/06/04 03:43:52;;;;;;;;;14.00;12.67;;;;;20.78;65.14;101034.34;5020202;28;45422;-88
2022/06/04 03:46:21;;;;;;;;;16.67;15.33;;;;;20.75;65.44;101045.44;5020694;28;45788;-87
2022/06/04 03:48:47;;;;;;;;;13.67;11.67;;;;;20.91;65.38;101082.09;5020879;28;45364;-88
2022/06/04 03:51:13;;;;;;;;;12.00;11.67;;;;;20.92;65.36;101081.97;5019758;28;45353;-87
2022/06/04 03:53:38;;;;;;;;;17.67;15.00;;;;;20.80;65.31;101051.34;5021800;28;52820;-88
2022/06/04 03:56:03;;;;;;;;;18.00;13.67;;;;;20.77;65.28;101035.34;5035618;28;46148;-88
2022/06/04 03:58:30;;;;;;;;;16.00;13.67;;;;;20.77;65.75;101043.47;5020305;28;45479;-88
2022/06/04 04:00:56;;;;;;;;;10.33;10.33;;;;;20.91;65.57;101063.13;5020419;28;45609;-87
2022/06/04 04:03:23;;;;;;;;;10.67;9.33;;;;;20.82;65.43;101040.38;5018726;28;48329;-88
2022/06/04 04:05:55;;;;;;;;;16.00;14.67;;;;;20.87;65.53;101062.53;5018292;28;45571;-87
2022/06/04 04:08:23;;;;;;;;;15.00;12.67;;;;;20.90;65.58;101066.84;5019722;28;45404;-88
2022/06/04 04:10:49;;;;;;;;;14.00;14.00;;;;;20.83;65.50;101063.75;5020053;28;45460;-88
2022/06/04 04:13:16;;;;;;;;;13.67;13.67;;;;;20.90;65.52;101069.56;5019869;28;46369;-88
2022/06/04 04:15:42;;;;;;;;;13.33;13.33;;;;;20.87;65.12;101085.06;5019230;28;45484;-88
2022/06/04 04:18:09;;;;;;;;;13.00;7.67;;;;;20.93;64.71;101112.66;5019432;28;45500;-88
2022/06/04 04:20:38;;;;;;;;;14.00;12.33;;;;;20.90;65.51;101121.88;5018256;28;45562;-88
2022/06/04 04:23:06;;;;;;;;;14.33;12.67;;;;;20.87;65.30;101120.28;5017711;28;47235;-88
2022/06/04 04:25:32;;;;;;;;;12.00;11.33;;;;;20.69;65.09;101097.41;5019383;28;45411;-87
2022/06/04 04:27:59;;;;;;;;;14.67;14.67;;;;;20.83;65.05;101134.22;5019782;28;45486;-88
2022/06/04 04:30:28;;;;;;;;;11.00;11.00;;;;;20.79;65.44;101122.78;5019089;28;45518;-88
2022/06/04 04:32:54;;;;;;;;;12.00;12.00;;;;;20.88;65.22;101142.81;5019344;28;46189;-88
2022/06/04 04:35:22;;;;;;;;;14.67;12.00;;;;;20.86;65.29;101131.25;5019364;28;45508;-88
2022/06/04 04:37:48;;;;;;;;;14.00;13.33;;;;;20.72;65.40;101117.94;5019751;28;45353;-88
2022/06/04 04:40:16;;;;;;;;;13.00;11.67;;;;;20.86;64.82;101132.13;5020319;28;45407;-88
2022/06/04 04:42:42;;;;;;;;;12.33;12.33;;;;;20.78;65.31;101118.31;5018804;28;47210;-89
2022/06/04 04:45:08;;;;;;;;;16.33;14.33;;;;;20.75;65.30;101133.97;5020834;28;45404;-88
2022/06/04 04:47:35;;;;;;;;;12.33;12.33;;;;;20.85;65.65;101145.78;5021412;28;45725;-88
2022/06/04 04:50:01;;;;;;;;;12.67;12.67;;;;;20.70;66.25;101115.38;5019708;28;45333;-87
2022/06/04 04:52:27;;;;;;;;;13.67;12.67;;;;;20.78;65.74;101137.28;5018734;28;47308;-88
2022/06/04 04:54:53;;;;;;;;;15.33;12.33;;;;;20.60;66.38;101126.09;5019173;28;45463;-88
2022/06/04 04:57:18;;;;;;;;;18.33;15.33;;;;;20.73;66.52;101158.47;5018496;28;45588;-88
2022/06/04 04:59:43;;;;;;;;;17.00;13.00;;;;;20.75;66.44;101167.34;5019354;28;45542;-88
2022/06/04 05:02:09;;;;;;;;;12.33;11.00;;;;;20.81;65.72;101187.66;5018684;28;54238;-88
2022/06/04 05:04:35;;;;;;;;;11.67;11.67;;;;;20.82;65.76;101211.94;5017284;28;54687;-88
2022/06/04 05:07:00;;;;;;;;;14.00;12.33;;;;;20.84;66.01;101201.84;5003181;28;45511;-87
2022/06/04 05:09:26;;;;;;;;;15.00;12.33;;;;;20.90;66.21;101167.09;5018172;28;45502;-87
2022/06/04 05:11:51;;;;;;;;;14.67;12.67;;;;;20.91;66.06;101155.25;5018773;28;47041;-88
2022/06/04 05:14:17;;;;;;;;;15.00;13.67;;;;;20.94;66.09;101152.31;5018744;28;45354;-88
2022/06/04 05:16:42;;;;;;;;;15.33;12.33;;;;;20.90;65.87;101140.00;5018852;28;45390;-88
2022/06/04 05:19:08;;;;;;;;;15.33;14.33;;;;;20.97;65.27;101144.78;5021696;28;45628;-88
2022/06/04 05:21:48;;;;;;;;;16.33;13.33;;;;;21.03;65.29;101155.16;5016993;28;46261;-88
2022/06/04 05:24:18;;;;;;;;;15.00;13.67;;;;;20.99;65.76;101137.41;5018051;28;45455;-88
2022/06/04 05:26:43;;;;;;;;;13.67;12.67;;;;;21.05;65.33;101141.47;5018594;28;45418;-88
2022/06/04 05:29:09;;;;;;;;;13.33;13.33;;;;;21.07;65.60;101128.63;5019181;28;45522;-88
2022/06/04 05:31:34;;;;;;;;;14.33;14.00;;;;;20.96;65.63;101104.28;5019491;28;45573;-88
2022/06/04 05:34:00;;;;;;;;;14.33;14.33;;;;;20.98;65.24;101111.31;5020930;28;45395;-87
2022/06/04 05:36:29;;;;;;;;;16.67;13.00;;;;;21.10;65.61;101125.69;5018806;28;45333;-87
2022/06/04 05:38:54;;;;;;;;;7.67;7.67;;;;;21.08;65.47;101098.69;5019921;28;45586;-88
2022/06/04 05:41:19;;;;;;;;;9.67;9.67;;;;;21.14;65.51;101110.03;5019186;28;50282;-89
2022/06/04 05:43:44;;;;;;;;;14.00;10.33;;;;;21.18;65.40;101125.06;5019398;28;45407;-88
2022/06/04 05:46:14;;;;;;;;;14.00;14.00;;;;;21.24;65.48;101124.56;5018785;28;45545;-88
2022/06/04 05:48:42;;;;;;;;;12.67;11.33;;;;;21.32;64.84;101123.91;5016712;28;45373;-88
2022/06/04 05:51:14;;;;;;;;;13.67;13.67;;;;;21.32;64.45;101103.06;5017984;28;47428;-87
2022/06/04 05:53:39;;;;;;;;;15.33;14.33;;;;;21.41;65.12;101113.19;5018331;28;45326;-88
2022/06/04 05:56:38;;;;;;;;;16.33;14.33;;;;;21.42;64.40;101123.06;5018900;28;45510;-90
2022/06/04 05:59:07;;;;;;;;;15.33;14.33;;;;;21.44;64.34;101128.34;4995261;28;45449;-89
2022/06/04 06:01:34;;;;;;;;;15.33;12.33;;;;;21.40;64.78;101143.13;4997836;28;45539;-88
2022/06/04 06:04:01;;;;;;;;;12.67;11.00;;;;;21.38;64.92;101183.06;4983805;28;45364;-89
2022/06/04 06:06:29;;;;;;;;;13.67;9.67;;;;;21.33;64.61;101236.78;4991830;28;45497;-93
2022/06/04 06:08:56;;;;;;;;;12.67;12.67;;;;;21.29;64.94;101239.78;4990346;28;45597;-92
2022/06/04 06:11:22;;;;;;;;;17.33;14.67;;;;;21.29;64.92;101233.50;4996335;28;47656;-95
2022/06/04 06:13:49;;;;;;;;;14.00;11.33;;;;;21.27;65.20;101213.78;5007968;28;45361;-88
2022/06/04 06:16:19;;;;;;;;;10.33;10.33;;;;;21.22;64.98;101194.31;4983642;28;45349;-92
2022/06/04 06:18:45;;;;;;;;;12.67;11.33;;;;;21.21;65.38;101171.75;4994917;28;45753;-92
2022/06/04 06:21:16;;;;;;;;;117.75;101.25;;;;;21.29;64.86;101195.53;5000575;28;46238;-95
2022/06/04 06:23:43;;;;;;;;;25.00;21.67;;;;;21.29;65.49;101209.94;5000344;28;45466;-93
2022/06/04 06:26:11;;;;;;;;;18.33;17.33;;;;;21.29;65.44;101217.22;4999208;28;45472;-94
2022/06/04 06:28:39;;;;;;;;;18.33;12.67;;;;;21.31;64.75;101214.41;4991102;28;45735;-96
2022/06/04 06:31:05;;;;;;;;;18.00;14.33;;;;;21.29;64.81;101212.66;4997625;28;45591;-93
2022/06/04 06:33:31;;;;;;;;;16.33;15.33;;;;;21.03;65.10;101178.69;4987697;28;45434;-92
2022/06/04 06:36:05;;;;;;;;;14.00;12.00;;;;;21.20;65.42;101220.69;5021411;28;45498;-94
2022/06/04 06:38:31;;;;;;;;;11.67;10.00;;;;;21.18;65.00;101226.22;5032004;28;45341;-94
2022/06/04 06:40:58;;;;;;;;;15.33;13.33;;;;;21.15;65.48;101207.50;5025499;28;46069;-95
2022/06/04 06:46:08;;;;;;;;;17.00;15.00;;;;;21.14;66.02;101234.72;5005014;28;45495;-90
2022/06/04 06:48:36;;;;;;;;;18.67;14.00;;;;;21.03;65.40;101219.34;5011871;28;45384;-91
2022/06/04 06:51:09;;;;;;;;;16.00;16.00;;;;;21.14;65.90;101250.97;5008494;28;46226;-90
2022/06/04 06:53:35;;;;;;;;;16.00;16.00;;;;;21.09;66.23;101245.94;5016798;28;45466;-92
2022/06/04 06:56:14;;;;;;;;;13.00;13.00;;;;;21.12;66.20;101239.41;5014834;28;45492;-92
2022/06/04 06:58:39;;;;;;;;;13.00;13.00;;;;;21.18;66.08;101236.19;5014473;28;45429;-85
2022/06/04 07:01:06;;;;;;;;;13.00;12.67;;;;;21.18;66.40;101211.81;5016997;28;45349;-91
2022/06/04 07:03:31;;;;;;;;;14.33;13.00;;;;;21.21;67.11;101217.84;5008439;28;45485;-90
2022/06/04 07:05:57;;;;;;;;;12.33;12.33;;;;;21.24;67.06;101205.91;5022397;28;45314;-90
2022/06/04 07:08:23;;;;;;;;;8.33;7.33;;;;;21.17;66.96;101183.84;5021308;28;45486;-91
2022/06/04 07:10:48;;;;;;;;;17.67;15.00;;;;;21.29;66.82;101203.66;5021199;28;46177;-90
2022/06/04 07:13:14;;;;;;;;;12.00;12.00;;;;;21.21;67.07;101192.56;5021727;28;45341;-90
2022/06/04 07:15:39;;;;;;;;;13.67;13.67;;;;;21.29;66.44;101190.97;5018488;28;45460;-89
2022/06/04 07:18:06;;;;;;;;;15.33;15.00;;;;;21.34;66.05;101201.44;5020563;28;46669;-88
2022/06/04 07:20:31;;;;;;;;;16.33;15.33;;;;;21.39;66.02;101206.47;5017964;28;47240;-90
2022/06/04 07:22:56;;;;;;;;;14.33;11.33;;;;;21.31;66.64;101193.56;5021733;28;45519;-89
2022/06/04 07:25:22;;;;;;;;;16.67;15.00;;;;;21.43;66.01;101197.16;5019104;28;45545;-92
2022/06/04 07:27:47;;;;;;;;;39.00;34.00;;;;;21.33;66.85;101160.88;5019906;28;45575;-87
2022/06/04 07:30:13;;;;;;;;;24.00;19.00;;;;;21.42;68.24;101173.72;5017185;28;48056;-89
2022/06/04 07:32:40;;;;;;;;;17.33;16.33;;;;;21.49;68.71;101191.19;5020617;28;45416;-90
2022/06/04 07:35:05;;;;;;;;;16.00;13.00;;;;;21.44;69.11;101210.56;5021394;28;45387;-90
2022/06/04 07:37:31;;;;;;;;;15.00;15.00;;;;;21.36;70.38;101204.88;5021059;28;45460;-89
2022/06/04 07:39:56;;;;;;;;;17.00;15.67;;;;;21.39;69.47;101220.91;5019824;28;47040;-89
2022/06/04 07:42:22;;;;;;;;;15.67;13.67;;;;;21.26;70.12;101215.63;5015561;28;46606;-91
2022/06/04 07:44:47;;;;;;;;;14.33;13.33;;;;;21.06;69.79;101198.25;5018084;28;45812;-90
2022/06/04 07:47:13;;;;;;;;;17.67;17.67;;;;;21.27;70.01;101236.31;5020811;28;45507;-91
2022/06/04 07:49:39;;;;;;;;;17.33;15.33;;;;;21.10;70.25;101215.16;5018895;28;46426;-93
2022/06/04 07:52:04;;;;;;;;;19.33;17.33;;;;;20.90;70.67;101199.63;5014484;28;45532;-89
2022/06/04 07:54:31;;;;;;;;;14.33;14.00;;;;;21.27;71.19;101260.72;5017782;28;45527;-93
2022/06/04 07:56:57;;;;;;;;;19.00;15.67;;;;;21.12;70.25;101221.31;5029042;28;45555;-91
2022/06/04 07:59:23;;;;;;;;;15.67;15.67;;;;;21.05;71.42;101207.38;5022499;28;47197;-86
2022/06/04 08:01:49;;;;;;;;;13.67;12.33;;;;;20.74;71.25;101143.06;5021418;28;45479;-86
2022/06/04 08:04:14;;;;;;;;;18.00;16.67;;;;;21.17;71.51;101210.94;5021091;28;45369;-86
2022/06/04 08:06:40;;;;;;;;;20.33;17.67;;;;;21.31;71.39;101217.09;5016658;28;45523;-84
2022/06/04 08:09:05;;;;;;;;;18.67;16.67;;;;;21.18;72.34;101190.97;5019747;28;46289;-86
2022/06/04 08:11:31;;;;;;;;;27.00;23.33;;;;;21.35;72.98;101210.41;5016462;28;45464;-85
2022/06/04 08:13:59;;;;;;;;;19.67;15.67;;;;;21.37;72.21;101212.03;5016188;28;45665;-87
2022/06/04 08:16:25;;;;;;;;;18.00;17.00;;;;;20.89;72.55;101138.28;5017673;28;45322;-92
2022/06/04 08:18:50;;;;;;;;;17.00;16.33;;;;;21.27;72.35;101192.06;5016468;28;46972;-89
2022/06/04 08:21:17;;;;;;;;;25.33;21.00;;;;;20.67;72.98;101083.09;5024124;28;45541;-96
2022/06/04 08:24:36;;;;;;;;;22.33;18.67;;;;;21.45;72.10;101201.44;5043754;28;44810;-96
2022/06/04 08:27:02;;;;;;;;;18.00;16.33;;;;;20.40;71.73;101050.97;4944778;28;44839;-94
2022/06/04 08:29:34;;;;;;;;;18.33;16.33;;;;;21.19;72.14;101179.16;4928410;28;47493;-91
2022/06/04 08:32:02;;;;;;;;;18.67;18.67;;;;;21.52;72.08;101247.94;4935480;28;45469;-88
2022/06/04 08:34:28;;;;;;;;;19.00;17.67;;;;;21.56;72.92;101227.66;4948389;28;45504;-95
2022/06/04 08:36:54;;;;;;;;;18.33;16.00;;;;;21.86;71.92;101245.13;4952151;28;45406;-86
2022/06/04 08:39:19;;;;;;;;;20.33;19.33;;;;;22.13;72.04;101244.66;4945823;28;47150;-87
2022/06/04 08:41:48;;;;;;;;;19.00;17.00;;;;;22.44;70.79;101242.94;4954226;28;45660;-88
2022/06/04 08:44:22;;;;;;;;;19.00;17.67;;;;;22.82;69.84;101241.44;4949684;28;45536;-83
2022/06/04 08:47:06;;;;;;;;;15.33;15.00;;;;;23.13;68.08;101230.63;4946504;28;45544;-87
2022/06/04 08:50:12;;;;;;;;;18.00;18.00;;;;;23.41;68.22;101236.31;4950709;28;45508;-82
2022/06/04 08:52:44;;;;;;;;;20.00;17.33;;;;;23.75;67.05;101218.66;4936004;28;45497;-81
2022/06/04 08:58:12;;;;;;;;;17.33;13.33;;;;;24.47;63.32;101223.81;4934686;28;45426;-83
2022/06/04 09:01:02;;;;;;;;;14.33;13.33;;;;;24.82;62.70;101209.56;4935953;28;45738;-83
2022/06/04 09:03:30;;;;;;;;;17.33;16.67;;;;;25.38;60.91;101233.19;4936139;28;45534;-85
2022/06/04 09:06:02;;;;;;;;;17.33;16.33;;;;;25.84;59.28;101241.38;4935754;28;45510;-86
2022/06/04 09:08:54;;;;;;;;;19.00;17.33;;;;;26.38;55.80;101252.34;4933929;28;45512;-89
2022/06/04 09:11:30;;;;;;;;;12.33;12.33;;;;;26.86;56.27;101246.41;4949526;28;46621;-85
2022/06/04 09:14:18;;;;;;;;;15.33;15.00;;;;;27.43;54.25;101255.97;4939934;28;45502;-81
2022/06/04 09:16:50;;;;;;;;;15.67;15.67;;;;;27.71;52.15;101254.69;4952124;28;47952;-88
2022/06/04 09:19:24;;;;;;;;;14.00;14.00;;;;;28.00;51.91;101245.19;4964949;28;45530;-91
2022/06/04 09:21:49;;;;;;;;;13.33;13.00;;;;;28.36;50.50;101253.13;4971124;28;46200;-88
2022/06/04 09:24:15;;;;;;;;;17.33;16.00;;;;;28.55;49.77;101250.06;5005123;28;45411;-93
2022/06/04 09:26:59;;;;;;;;;17.33;14.67;;;;;28.99;49.02;101246.88;5009742;28;45564;-89
2022/06/04 09:29:46;;;;;;;;;11.33;11.33;;;;;29.41;48.29;101251.25;5007368;28;45464;-88
2022/06/04 09:32:44;;;;;;;;;19.00;14.33;;;;;29.63;47.34;101238.59;5009414;28;45630;-88
2022/06/04 09:35:18;;;;;;;;;11.67;11.67;;;;;30.05;46.22;101239.22;5011005;28;45528;-82
2022/06/04 09:37:46;;;;;;;;;13.00;12.67;;;;;30.42;45.26;101249.44;5011237;28;45436;-85
2022/06/04 09:40:24;;;;;;;;;12.00;12.00;;;;;30.77;44.71;101243.44;5012671;28;45732;-85
2022/06/04 09:42:50;;;;;;;;;13.00;12.00;;;;;31.02;43.27;101217.38;5016995;28;45479;-85
2022/06/04 09:45:29;;;;;;;;;11.33;11.33;;;;;31.49;42.37;101235.44;5088805;27;45385;-85
2022/06/04 09:47:56;;;;;;;;;11.00;11.00;;;;;31.90;41.04;101223.78;5071192;27;45483;-87
2022/06/04 09:50:34;;;;;;;;;14.33;12.33;;;;;32.35;41.09;101205.16;5072101;27;45633;-86
2022/06/04 09:53:19;;;;;;;;;10.67;10.33;;;;;33.04;39.72;101231.19;5069817;27;45339;-83
2022/06/04 09:55:52;;;;;;;;;8.33;7.67;;;;;33.60;38.55;101228.31;5071156;27;45534;-87
2022/06/04 09:58:21;;;;;;;;;10.33;9.67;;;;;33.79;37.15;101215.59;5076064;27;45652;-85
2022/06/04 10:01:04;;;;;;;;;9.00;9.00;;;;;34.56;36.00;101241.03;5081832;27;45415;-84
2022/06/04 10:03:31;;;;;;;;;10.67;10.00;;;;;35.49;34.36;101243.59;5077372;27;46369;-85
2022/06/04 10:06:11;;;;;;;;;7.00;7.00;;;;;35.91;33.26;101177.47;5079463;27;45682;-85
2022/06/04 10:11:33;;;;;;;;;10.33;10.33;;;;;36.67;31.14;101174.75;5080720;27;45600;-85
2022/06/04 10:13:59;;;;;;;;;7.67;7.00;;;;;36.99;30.05;101242.16;5081325;27;45771;-90
2022/06/04 10:16:36;;;;;;;;;6.67;6.67;;;;;36.35;27.92;101149.81;5075370;27;45390;-84
2022/06/04 10:19:13;;;;;;;;;6.33;6.33;;;;;36.54;29.17;101247.91;5073561;27;45474;-86
2022/06/04 10:21:41;;;;;;;;;6.00;6.00;;;;;36.19;31.40;101209.53;5073032;27;45575;-85
2022/06/04 10:24:24;;;;;;;;;5.00;5.00;;;;;36.27;31.09;101241.72;5073425;27;45648;-85
2022/06/04 10:27:19;;;;;;;;;7.33;6.00;;;;;36.02;30.16;101236.13;5071860;27;46280;-85
2022/06/04 10:30:02;;;;;;;;;3.33;1.33;;;;;35.61;29.69;101238.25;5072817;27;45656;-84
2022/06/04 10:32:33;;;;;;;;;2.33;2.33;;;;;35.63;30.86;101238.03;5078887;27;45613;-84
2022/06/04 10:35:13;;;;;;;;;5.67;5.00;;;;;35.70;31.41;101233.31;5083385;27;45440;-86
2022/06/04 10:37:56;;;;;;;;;7.00;7.00;;;;;35.81;31.31;101234.53;5065864;27;45389;-84
2022/06/04 10:40:31;;;;;;;;;5.00;5.00;;;;;35.86;31.18;101229.16;5073001;27;45500;-83
2022/06/04 10:43:21;;;;;;;;;4.00;4.00;;;;;35.73;29.85;101224.56;5072520;27;45484;-85
2022/06/04 10:45:59;;;;;;;;;5.00;5.00;;;;;35.04;29.82;101154.03;5048990;28;45434;-85
2022/06/04 10:48:43;;;;;;;;;4.33;4.00;;;;;35.61;29.51;101216.06;5051069;28;46934;-83
2022/06/04 10:51:33;;;;;;;;;8.33;8.33;;;;;35.68;30.74;101224.34;5050649;28;45521;-84
2022/06/04 10:54:26;;;;;;;;;6.00;5.67;;;;;35.72;29.93;101200.66;5048928;28;45383;-82
2022/06/04 10:56:57;;;;;;;;;6.67;5.67;;;;;35.94;29.66;101220.56;5033469;28;45497;-82
2022/06/04 10:59:47;;;;;;;;;5.67;5.67;;;;;35.97;30.24;101213.75;5033681;28;47216;-82
2022/06/04 11:02:23;;;;;;;;;5.67;5.67;;;;;35.56;28.87;101196.44;5026505;28;45473;-83
2022/06/04 11:04:56;;;;;;;;;7.67;7.67;;;;;35.62;29.46;101197.53;5032867;28;50262;-93
2022/06/04 11:07:21;;;;;;;;;6.67;6.33;;;;;35.59;28.84;101212.66;5028936;28;45548;-88
2022/06/04 11:09:50;;;;;;;;;8.33;7.00;;;;;35.29;28.89;101218.75;5031075;28;47420;-87
2022/06/04 11:12:30;;;;;;;;;6.33;5.33;;;;;34.93;29.84;101190.72;5035813;28;45436;-87
2022/06/04 11:15:06;;;;;;;;;7.67;7.00;;;;;34.94;29.89;101207.13;5031339;28;45560;-86
2022/06/04 11:17:46;;;;;;;;;7.67;6.33;;;;;34.91;30.46;101215.88;5036907;28;45462;-84
2022/06/04 11:20:18;;;;;;;;;6.33;6.33;;;;;34.91;31.08;101212.22;5031814;28;46503;-82
2022/06/04 11:22:53;;;;;;;;;7.67;7.67;;;;;34.81;30.85;101201.59;5034310;28;45449;-86
2022/06/04 11:25:27;;;;;;;;;10.00;8.33;;;;;34.60;31.61;101173.09;5029686;28;45336;-89
2022/06/04 11:28:00;;;;;;;;;7.67;6.33;;;;;34.64;30.92;101204.84;5038482;28;45667;-89
2022/06/04 11:30:57;;;;;;;;;7.33;6.67;;;;;34.52;30.28;101191.84;5038976;28;47184;-89
2022/06/04 11:33:44;;;;;;;;;4.33;4.33;;;;;34.44;31.07;101195.66;5041825;28;45502;-92
2022/06/04 11:36:30;;;;;;;;;6.33;6.33;;;;;33.52;30.23;101059.81;5043156;28;45581;-93
2022/06/04 11:39:10;;;;;;;;;5.33;5.33;;;;;33.92;31.23;101142.84;5041704;28;45438;-88
2022/06/04 11:41:44;;;;;;;;;8.00;6.00;;;;;33.45;31.43;101071.94;5031671;28;46293;-87
2022/06/04 11:44:36;;;;;;;;;5.67;5.67;;;;;34.04;30.81;101182.66;5045207;28;45879;-89
2022/06/04 11:47:22;;;;;;;;;7.67;7.67;;;;;33.62;31.60;101134.94;5052809;28;45416;-95